Highest pressure

Not for real navigation. The accuracy of this data is not assured See disclaimer for more information



ICAO NAME COUNTRY WIND Kt GUST Kt VIS m TEMP/DEW C BARO METAR
SKSP San Andres Isla / Sesquicenten Colombia 11 0 9999 27/23 92.91 SKSP 221000Z 05011KT 9999 FEW016 27/23 A9291
SLLP La Paz / Alto Bolivia 3 0 9999 5/2 30.62 SLLP 221000Z 35003KT 9999 FEW015 BKN200 05/02 Q1037
SLPO Potosi Bolivia 0 0 9999 0/-1 30.59 SLPO 221000Z 00000KT 9999 NSC 00/M01 Q1036
SPHY Andahuayla Peru 0 0 8000 6/-1 30.56 SPHY 221000Z /////KT 8000 3000NE BCFG SCT012 BKN050 06/M01 Q1035 RMK PP000
SPZO Cuzco Peru 4 0 9999 9/6 30.47 SPZO 221000Z 09004KT 9999 SCT043 BKN080 09/06 Q1032 RMK BIRD HAZARD RWY 28 PP000

Show more